sensor_id;sensor_type;location;lat;lon;timestamp;pressure;altitude;pressure_sealevel;temperature;humidity
36828;BME280;22766;48.042;11.192;2023-05-03T00:00:13;95688.59;;;6.01;100.00
36828;BME280;22766;48.042;11.192;2023-05-03T00:02:41;95695.88;;;6.07;100.00
36828;BME280;22766;48.042;11.192;2023-05-03T00:05:10;95686.75;;;6.03;100.00
36828;BME280;22766;48.042;11.192;2023-05-03T00:07:40;95683.91;;;5.95;100.00
36828;BME280;22766;48.042;11.192;2023-05-03T00:10:07;95683.38;;;6.02;100.00
36828;BME280;22766;48.042;11.192;2023-05-03T00:12:39;95684.31;;;6.01;100.00
36828;BME280;22766;48.042;11.192;2023-05-03T00:15:06;95681.88;;;5.87;100.00
36828;BME280;22766;48.042;11.192;2023-05-03T00:17:37;95686.91;;;5.89;100.00
36828;BME280;22766;48.042;11.192;2023-05-03T00:20:04;95686.59;;;5.81;100.00
36828;BME280;22766;48.042;11.192;2023-05-03T00:22:31;95687.50;;;5.80;100.00
36828;BME280;22766;48.042;11.192;2023-05-03T00:24:59;95685.66;;;5.82;100.00
36828;BME280;22766;48.042;11.192;2023-05-03T00:27:25;95683.09;;;5.82;100.00
36828;BME280;22766;48.042;11.192;2023-05-03T00:29:52;95681.38;;;5.82;100.00
36828;BME280;22766;48.042;11.192;2023-05-03T00:32:19;95685.28;;;5.75;100.00
36828;BME280;22766;48.042;11.192;2023-05-03T00:34:52;95683.63;;;5.74;100.00
36828;BME280;22766;48.042;11.192;2023-05-03T00:37:19;95676.88;;;5.86;100.00
36828;BME280;22766;48.042;11.192;2023-05-03T00:39:46;95682.19;;;5.83;100.00
36828;BME280;22766;48.042;11.192;2023-05-03T00:42:13;95676.25;;;5.82;100.00
36828;BME280;22766;48.042;11.192;2023-05-03T00:44:40;95672.47;;;5.75;100.00
36828;BME280;22766;48.042;11.192;2023-05-03T00:47:08;95675.94;;;5.74;100.00
36828;BME280;22766;48.042;11.192;2023-05-03T00:49:35;95673.59;;;5.84;100.00
36828;BME280;22766;48.042;11.192;2023-05-03T00:52:02;95672.47;;;5.88;100.00
36828;BME280;22766;48.042;11.192;2023-05-03T00:54:29;95665.09;;;5.83;100.00
36828;BME280;22766;48.042;11.192;2023-05-03T00:56:56;95663.66;;;5.79;100.00
36828;BME280;22766;48.042;11.192;2023-05-03T00:59:23;95658.66;;;5.65;100.00
36828;BME280;22766;48.042;11.192;2023-05-03T01:01:51;95662.75;;;5.67;100.00
36828;BME280;22766;48.042;11.192;2023-05-03T01:04:19;95661.53;;;5.60;100.00
36828;BME280;22766;48.042;11.192;2023-05-03T01:06:54;95658.66;;;5.65;100.00
36828;BME280;22766;48.042;11.192;2023-05-03T01:09:32;95660.00;;;5.58;100.00
36828;BME280;22766;48.042;11.192;2023-05-03T01:17:19;95662.50;;;5.34;100.00
36828;BME280;22766;48.042;11.192;2023-05-03T01:19:50;95662.41;;;5.48;100.00
36828;BME280;22766;48.042;11.192;2023-05-03T01:25:21;95653.19;;;5.21;100.00
36828;BME280;22766;48.042;11.192;2023-05-03T01:27:48;95653.41;;;5.18;100.00
36828;BME280;22766;48.042;11.192;2023-05-03T01:30:15;95653.13;;;5.22;100.00
36828;BME280;22766;48.042;11.192;2023-05-03T01:35:35;95654.03;;;5.21;100.00
36828;BME280;22766;48.042;11.192;2023-05-03T01:38:02;95655.47;;;5.25;100.00
36828;BME280;22766;48.042;11.192;2023-05-03T01:40:37;95652.28;;;5.22;100.00
36828;BME280;22766;48.042;11.192;2023-05-03T01:43:05;95649.72;;;5.22;100.00
36828;BME280;22766;48.042;11.192;2023-05-03T01:45:33;95654.63;;;5.25;100.00
36828;BME280;22766;48.042;11.192;2023-05-03T01:48:00;95651.16;;;5.26;100.00
36828;BME280;22766;48.042;11.192;2023-05-03T01:50:26;95657.31;;;5.23;100.00
36828;BME280;22766;48.042;11.192;2023-05-03T01:52:53;95648.91;;;5.21;100.00
36828;BME280;22766;48.042;11.192;2023-05-03T01:55:20;95649.41;;;5.26;100.00
36828;BME280;22766;48.042;11.192;2023-05-03T01:57:46;95655.25;;;5.28;100.00
36828;BME280;22766;48.042;11.192;2023-05-03T02:00:13;95652.59;;;5.30;100.00
36828;BME280;22766;48.042;11.192;2023-05-03T02:02:40;95653.09;;;5.35;100.00
36828;BME280;22766;48.042;11.192;2023-05-03T02:05:08;95650.31;;;5.38;100.00
36828;BME280;22766;48.042;11.192;2023-05-03T02:07:34;95653.81;;;5.37;100.00
36828;BME280;22766;48.042;11.192;2023-05-03T02:10:01;95656.25;;;5.38;100.00
36828;BME280;22766;48.042;11.192;2023-05-03T02:12:28;95659.03;;;5.35;100.00
36828;BME280;22766;48.042;11.192;2023-05-03T02:14:55;95660.28;;;5.30;100.00
36828;BME280;22766;48.042;11.192;2023-05-03T02:17:21;95663.84;;;5.27;100.00
36828;BME280;22766;48.042;11.192;2023-05-03T02:19:52;95665.59;;;5.27;100.00
36828;BME280;22766;48.042;11.192;2023-05-03T02:22:19;95667.84;;;5.19;100.00
36828;BME280;22766;48.042;11.192;2023-05-03T02:24:46;95666.31;;;5.16;100.00
36828;BME280;22766;48.042;11.192;2023-05-03T02:27:13;95672.06;;;5.20;100.00
36828;BME280;22766;48.042;11.192;2023-05-03T02:29:41;95679.22;;;5.27;100.00
36828;BME280;22766;48.042;11.192;2023-05-03T02:32:08;95671.72;;;5.37;100.00
36828;BME280;22766;48.042;11.192;2023-05-03T02:34:35;95677.16;;;5.32;100.00
36828;BME280;22766;48.042;11.192;2023-05-03T02:37:02;95677.56;;;5.39;100.00
36828;BME280;22766;48.042;11.192;2023-05-03T02:39:29;95676.03;;;5.24;100.00
36828;BME280;22766;48.042;11.192;2023-05-03T02:41:56;95680.03;;;5.15;100.00
36828;BME280;22766;48.042;11.192;2023-05-03T02:44:23;95675.31;;;5.22;100.00
36828;BME280;22766;48.042;11.192;2023-05-03T02:46:50;95676.94;;;5.23;100.00
36828;BME280;22766;48.042;11.192;2023-05-03T02:49:17;95679.41;;;5.12;100.00
36828;BME280;22766;48.042;11.192;2023-05-03T02:51:43;95680.88;;;5.03;100.00
36828;BME280;22766;48.042;11.192;2023-05-03T02:54:10;95679.72;;;5.07;100.00
36828;BME280;22766;48.042;11.192;2023-05-03T02:56:37;95679.72;;;5.07;100.00
36828;BME280;22766;48.042;11.192;2023-05-03T02:59:04;95679.00;;;5.18;100.00
36828;BME280;22766;48.042;11.192;2023-05-03T03:01:32;95682.47;;;5.17;100.00
36828;BME280;22766;48.042;11.192;2023-05-03T03:03:59;95679.41;;;5.24;100.00
36828;BME280;22766;48.042;11.192;2023-05-03T03:06:26;95677.97;;;5.33;100.00
36828;BME280;22766;48.042;11.192;2023-05-03T03:08:53;95674.59;;;5.32;100.00
36828;BME280;22766;48.042;11.192;2023-05-03T03:11:20;95670.41;;;5.31;100.00
36828;BME280;22766;48.042;11.192;2023-05-03T03:13:47;95672.13;;;5.31;100.00
36828;BME280;22766;48.042;11.192;2023-05-03T03:16:14;95670.81;;;5.25;100.00
36828;BME280;22766;48.042;11.192;2023-05-03T03:18:41;95670.72;;;5.27;100.00
36828;BME280;22766;48.042;11.192;2023-05-03T03:21:08;95665.19;;;5.33;100.00
36828;BME280;22766;48.042;11.192;2023-05-03T03:23:35;95663.09;;;5.38;100.00
36828;BME280;22766;48.042;11.192;2023-05-03T03:26:02;95666.19;;;5.43;100.00
36828;BME280;22766;48.042;11.192;2023-05-03T03:28:29;95670.19;;;5.47;100.00
36828;BME280;22766;48.042;11.192;2023-05-03T03:30:59;95673.34;;;5.50;100.00
36828;BME280;22766;48.042;11.192;2023-05-03T03:33:26;95667.69;;;5.58;100.00
36828;BME280;22766;48.042;11.192;2023-05-03T03:35:58;95665.50;;;5.64;100.00
36828;BME280;22766;48.042;11.192;2023-05-03T03:38:29;95670.88;;;5.61;100.00
36828;BME280;22766;48.042;11.192;2023-05-03T03:41:01;95678.25;;;5.53;100.00
36828;BME280;22766;48.042;11.192;2023-05-03T03:43:28;95670.56;;;5.53;100.00
36828;BME280;22766;48.042;11.192;2023-05-03T03:45:55;95673.00;;;5.55;100.00
36828;BME280;22766;48.042;11.192;2023-05-03T03:48:22;95673.25;;;5.52;100.00
36828;BME280;22766;48.042;11.192;2023-05-03T03:50:49;95671.31;;;5.43;100.00
36828;BME280;22766;48.042;11.192;2023-05-03T03:53:17;95671.41;;;5.41;100.00
36828;BME280;22766;48.042;11.192;2023-05-03T03:55:44;95668.34;;;5.36;100.00
36828;BME280;22766;48.042;11.192;2023-05-03T03:58:14;95670.91;;;5.36;100.00
36828;BME280;22766;48.042;11.192;2023-05-03T04:00:41;95666.72;;;5.35;100.00
36828;BME280;22766;48.042;11.192;2023-05-03T04:03:12;95673.25;;;5.27;100.00
36828;BME280;22766;48.042;11.192;2023-05-03T04:05:40;95675.09;;;5.25;100.00
36828;BME280;22766;48.042;11.192;2023-05-03T04:08:07;95668.22;;;5.50;100.00
36828;BME280;22766;48.042;11.192;2023-05-03T04:10:35;95680.75;;;5.30;100.00
36828;BME280;22766;48.042;11.192;2023-05-03T04:13:03;95679.00;;;5.43;100.00
36828;BME280;22766;48.042;11.192;2023-05-03T04:15:29;95670.72;;;5.39;100.00
36828;BME280;22766;48.042;11.192;2023-05-03T04:17:58;95670.06;;;5.36;100.00
36828;BME280;22766;48.042;11.192;2023-05-03T04:20:25;95678.38;;;5.39;100.00
36828;BME280;22766;48.042;11.192;2023-05-03T04:22:53;95684.00;;;5.44;100.00
36828;BME280;22766;48.042;11.192;2023-05-03T04:25:23;95676.63;;;5.40;100.00
36828;BME280;22766;48.042;11.192;2023-05-03T04:27:57;95677.69;;;5.37;100.00
36828;BME280;22766;48.042;11.192;2023-05-03T04:30:25;95681.56;;;5.43;100.00
36828;BME280;22766;48.042;11.192;2023-05-03T04:32:55;95690.34;;;5.51;100.00
36828;BME280;22766;48.042;11.192;2023-05-03T04:35:26;95687.06;;;5.62;100.00
36828;BME280;22766;48.042;11.192;2023-05-03T04:37:56;95688.91;;;5.60;100.00
36828;BME280;22766;48.042;11.192;2023-05-03T04:40:24;95697.31;;;5.62;100.00
36828;BME280;22766;48.042;11.192;2023-05-03T04:43:02;95688.50;;;5.66;100.00
36828;BME280;22766;48.042;11.192;2023-05-03T04:45:32;95692.06;;;5.63;100.00
36828;BME280;22766;48.042;11.192;2023-05-03T04:48:00;95696.38;;;5.63;100.00
36828;BME280;22766;48.042;11.192;2023-05-03T04:50:27;95704.66;;;5.66;100.00
36828;BME280;22766;48.042;11.192;2023-05-03T04:52:54;95703.16;;;5.64;100.00
36828;BME280;22766;48.042;11.192;2023-05-03T04:55:23;95698.75;;;5.53;100.00
36828;BME280;22766;48.042;11.192;2023-05-03T04:57:51;95697.50;;;5.59;100.00
36828;BME280;22766;48.042;11.192;2023-05-03T05:00:17;95697.16;;;5.76;100.00
36828;BME280;22766;48.042;11.192;2023-05-03T05:02:50;95703.00;;;5.78;100.00
36828;BME280;22766;48.042;11.192;2023-05-03T05:05:17;95708.72;;;5.82;100.00
36828;BME280;22766;48.042;11.192;2023-05-03T05:07:46;95715.13;;;5.63;100.00
36828;BME280;22766;48.042;11.192;2023-05-03T05:10:15;95709.38;;;5.72;100.00
36828;BME280;22766;48.042;11.192;2023-05-03T05:12:42;95710.69;;;5.78;100.00
36828;BME280;22766;48.042;11.192;2023-05-03T05:15:09;95712.75;;;5.86;100.00
36828;BME280;22766;48.042;11.192;2023-05-03T05:17:37;95712.09;;;5.82;100.00
36828;BME280;22766;48.042;11.192;2023-05-03T05:20:06;95709.25;;;5.74;100.00
36828;BME280;22766;48.042;11.192;2023-05-03T05:22:40;95710.91;;;5.88;100.00
36828;BME280;22766;48.042;11.192;2023-05-03T05:25:07;95717.34;;;5.81;100.00
36828;BME280;22766;48.042;11.192;2023-05-03T05:27:34;95718.81;;;5.85;100.00
36828;BME280;22766;48.042;11.192;2023-05-03T05:30:03;95728.13;;;5.86;100.00
36828;BME280;22766;48.042;11.192;2023-05-03T05:32:32;95729.28;;;5.56;100.00
36828;BME280;22766;48.042;11.192;2023-05-03T05:34:59;95725.59;;;5.48;100.00
36828;BME280;22766;48.042;11.192;2023-05-03T05:37:27;95731.50;;;5.61;100.00
36828;BME280;22766;48.042;11.192;2023-05-03T05:39:57;95728.63;;;5.78;100.00
36828;BME280;22766;48.042;11.192;2023-05-03T05:42:27;95731.81;;;5.69;100.00
36828;BME280;22766;48.042;11.192;2023-05-03T05:44:53;95732.19;;;5.76;100.00
36828;BME280;22766;48.042;11.192;2023-05-03T05:47:20;95735.50;;;5.90;100.00
36828;BME280;22766;48.042;11.192;2023-05-03T05:49:49;95730.56;;;6.00;100.00
36828;BME280;22766;48.042;11.192;2023-05-03T05:52:16;95736.22;;;6.16;100.00
36828;BME280;22766;48.042;11.192;2023-05-03T05:54:43;95731.06;;;6.28;100.00
36828;BME280;22766;48.042;11.192;2023-05-03T05:57:10;95733.09;;;6.36;100.00
36828;BME280;22766;48.042;11.192;2023-05-03T05:59:38;95737.56;;;6.45;100.00
36828;BME280;22766;48.042;11.192;2023-05-03T06:02:13;95735.03;;;6.56;100.00
36828;BME280;22766;48.042;11.192;2023-05-03T06:04:40;95738.22;;;6.59;100.00
36828;BME280;22766;48.042;11.192;2023-05-03T06:07:07;95741.09;;;6.79;100.00
36828;BME280;22766;48.042;11.192;2023-05-03T06:09:33;95741.75;;;6.70;100.00
36828;BME280;22766;48.042;11.192;2023-05-03T06:12:02;95733.38;;;6.79;100.00
36828;BME280;22766;48.042;11.192;2023-05-03T06:14:30;95736.78;;;6.79;100.00
36828;BME280;22766;48.042;11.192;2023-05-03T06:16:58;95741.22;;;6.88;100.00
36828;BME280;22766;48.042;11.192;2023-05-03T06:19:26;95736.50;;;7.06;100.00
36828;BME280;22766;48.042;11.192;2023-05-03T06:21:52;95741.09;;;7.24;100.00
36828;BME280;22766;48.042;11.192;2023-05-03T06:24:20;95741.47;;;7.20;100.00
36828;BME280;22766;48.042;11.192;2023-05-03T06:26:50;95747.25;;;7.11;100.00
36828;BME280;22766;48.042;11.192;2023-05-03T06:29:17;95738.53;;;7.35;100.00
36828;BME280;22766;48.042;11.192;2023-05-03T06:31:44;95743.34;;;7.51;100.00
36828;BME280;22766;48.042;11.192;2023-05-03T06:34:11;95739.28;;;7.60;100.00
36828;BME280;22766;48.042;11.192;2023-05-03T06:36:40;95743.03;;;7.67;100.00
36828;BME280;22766;48.042;11.192;2023-05-03T06:39:07;95752.97;;;7.82;100.00
36828;BME280;22766;48.042;11.192;2023-05-03T06:41:34;95752.13;;;7.93;100.00
36828;BME280;22766;48.042;11.192;2023-05-03T06:44:01;95750.25;;;8.06;100.00
36828;BME280;22766;48.042;11.192;2023-05-03T06:46:29;95745.44;;;8.12;100.00
36828;BME280;22766;48.042;11.192;2023-05-03T06:48:56;95744.84;;;8.20;100.00
36828;BME280;22766;48.042;11.192;2023-05-03T06:51:24;95743.19;;;8.19;100.00
36828;BME280;22766;48.042;11.192;2023-05-03T06:53:59;95746.97;;;8.26;100.00
36828;BME280;22766;48.042;11.192;2023-05-03T06:56:27;95751.19;;;8.27;100.00
36828;BME280;22766;48.042;11.192;2023-05-03T06:58:54;95759.78;;;8.48;100.00
36828;BME280;22766;48.042;11.192;2023-05-03T07:01:20;95756.31;;;8.27;100.00
36828;BME280;22766;48.042;11.192;2023-05-03T07:03:48;95752.34;;;8.12;100.00
36828;BME280;22766;48.042;11.192;2023-05-03T07:06:15;95755.75;;;8.01;100.00
36828;BME280;22766;48.042;11.192;2023-05-03T07:08:42;95747.56;;;8.18;100.00
36828;BME280;22766;48.042;11.192;2023-05-03T07:11:09;95742.53;;;7.95;100.00
36828;BME280;22766;48.042;11.192;2023-05-03T07:13:36;95739.34;;;8.13;100.00
36828;BME280;22766;48.042;11.192;2023-05-03T07:16:03;95747.09;;;8.24;100.00
36828;BME280;22766;48.042;11.192;2023-05-03T07:18:29;95744.13;;;8.40;100.00
36828;BME280;22766;48.042;11.192;2023-05-03T07:20:56;95741.44;;;8.53;100.00
36828;BME280;22766;48.042;11.192;2023-05-03T07:23:22;95745.00;;;8.61;100.00
36828;BME280;22766;48.042;11.192;2023-05-03T07:25:49;95750.53;;;8.57;100.00
36828;BME280;22766;48.042;11.192;2023-05-03T07:28:16;95746.53;;;8.64;100.00
36828;BME280;22766;48.042;11.192;2023-05-03T07:30:43;95744.66;;;8.66;100.00
36828;BME280;22766;48.042;11.192;2023-05-03T07:33:10;95746.03;;;8.70;100.00
36828;BME280;22766;48.042;11.192;2023-05-03T07:35:37;95747.97;;;8.57;100.00
36828;BME280;22766;48.042;11.192;2023-05-03T07:38:04;95754.44;;;8.18;100.00
36828;BME280;22766;48.042;11.192;2023-05-03T07:40:30;95757.38;;;8.35;100.00
36828;BME280;22766;48.042;11.192;2023-05-03T07:42:59;95754.16;;;8.54;100.00
36828;BME280;22766;48.042;11.192;2023-05-03T07:45:26;95754.88;;;8.56;100.00
36828;BME280;22766;48.042;11.192;2023-05-03T07:47:54;95760.31;;;8.74;100.00
36828;BME280;22766;48.042;11.192;2023-05-03T07:50:21;95753.84;;;8.79;100.00
36828;BME280;22766;48.042;11.192;2023-05-03T07:52:47;95751.97;;;8.81;100.00
36828;BME280;22766;48.042;11.192;2023-05-03T07:55:18;95750.44;;;8.79;100.00
36828;BME280;22766;48.042;11.192;2023-05-03T07:57:45;95754.41;;;8.83;100.00
36828;BME280;22766;48.042;11.192;2023-05-03T08:00:13;95743.44;;;9.01;100.00
36828;BME280;22766;48.042;11.192;2023-05-03T08:02:40;95744.91;;;9.15;100.00
36828;BME280;22766;48.042;11.192;2023-05-03T08:05:08;95748.78;;;9.30;100.00
36828;BME280;22766;48.042;11.192;2023-05-03T08:07:36;95741.03;;;9.51;100.00
36828;BME280;22766;48.042;11.192;2023-05-03T08:10:02;95742.94;;;9.49;100.00
36828;BME280;22766;48.042;11.192;2023-05-03T08:12:30;95742.50;;;9.43;100.00
36828;BME280;22766;48.042;11.192;2023-05-03T08:14:56;95744.25;;;9.43;100.00
36828;BME280;22766;48.042;11.192;2023-05-03T08:17:23;95742.47;;;9.64;100.00
36828;BME280;22766;48.042;11.192;2023-05-03T08:19:50;95738.75;;;9.48;100.00
36828;BME280;22766;48.042;11.192;2023-05-03T08:22:17;95731.63;;;9.61;100.00
36828;BME280;22766;48.042;11.192;2023-05-03T08:24:44;95732.84;;;9.66;100.00
36828;BME280;22766;48.042;11.192;2023-05-03T08:27:10;95723.06;;;9.60;100.00
36828;BME280;22766;48.042;11.192;2023-05-03T08:29:37;95730.28;;;9.66;100.00
36828;BME280;22766;48.042;11.192;2023-05-03T08:32:04;95731.34;;;9.64;100.00
36828;BME280;22766;48.042;11.192;2023-05-03T08:34:31;95732.53;;;9.90;100.00
36828;BME280;22766;48.042;11.192;2023-05-03T08:36:58;95737.97;;;9.87;100.00
36828;BME280;22766;48.042;11.192;2023-05-03T08:39:25;95738.63;;;10.09;100.00
36828;BME280;22766;48.042;11.192;2023-05-03T08:41:53;95732.19;;;10.04;100.00
36828;BME280;22766;48.042;11.192;2023-05-03T08:44:21;95733.94;;;10.43;100.00
36828;BME280;22766;48.042;11.192;2023-05-03T08:46:50;95729.75;;;10.42;100.00
36828;BME280;22766;48.042;11.192;2023-05-03T08:49:17;95730.81;;;10.40;100.00
36828;BME280;22766;48.042;11.192;2023-05-03T08:51:44;95725.97;;;10.75;100.00
36828;BME280;22766;48.042;11.192;2023-05-03T08:54:13;95732.91;;;10.93;100.00
36828;BME280;22766;48.042;11.192;2023-05-03T08:56:43;95735.47;;;10.74;100.00
36828;BME280;22766;48.042;11.192;2023-05-03T08:59:12;95730.44;;;10.44;100.00
36828;BME280;22766;48.042;11.192;2023-05-03T09:01:40;95734.25;;;10.69;100.00
36828;BME280;22766;48.042;11.192;2023-05-03T09:04:08;95736.16;;;10.86;100.00
36828;BME280;22766;48.042;11.192;2023-05-03T09:06:36;95726.88;;;11.31;100.00
36828;BME280;22766;48.042;11.192;2023-05-03T09:09:04;95733.38;;;11.54;100.00
36828;BME280;22766;48.042;11.192;2023-05-03T09:11:36;95731.84;;;11.71;100.00
36828;BME280;22766;48.042;11.192;2023-05-03T09:14:11;95737.75;;;11.44;100.00
36828;BME280;22766;48.042;11.192;2023-05-03T09:16:40;95735.50;;;11.78;100.00
36828;BME280;22766;48.042;11.192;2023-05-03T09:19:08;95742.00;;;12.63;100.00
36828;BME280;22766;48.042;11.192;2023-05-03T09:21:38;95732.28;;;13.28;100.00
36828;BME280;22766;48.042;11.192;2023-05-03T09:24:24;95737.94;;;14.08;100.00
36828;BME280;22766;48.042;11.192;2023-05-03T09:26:50;95732.97;;;14.56;100.00
36828;BME280;22766;48.042;11.192;2023-05-03T09:29:32;95734.03;;;15.28;100.00
36828;BME280;22766;48.042;11.192;2023-05-03T09:32:04;95727.69;;;15.30;100.00
36828;BME280;22766;48.042;11.192;2023-05-03T09:34:33;95726.56;;;15.57;100.00
36828;BME280;22766;48.042;11.192;2023-05-03T09:37:00;95721.19;;;15.18;100.00
36828;BME280;22766;48.042;11.192;2023-05-03T09:39:27;95713.88;;;15.22;100.00
36828;BME280;22766;48.042;11.192;2023-05-03T09:41:53;95715.00;;;15.03;100.00
36828;BME280;22766;48.042;11.192;2023-05-03T09:44:39;95706.41;;;15.35;100.00
36828;BME280;22766;48.042;11.192;2023-05-03T09:47:07;95705.56;;;15.66;100.00
36828;BME280;22766;48.042;11.192;2023-05-03T09:49:33;95708.88;;;15.44;100.00
36828;BME280;22766;48.042;11.192;2023-05-03T09:52:04;95708.00;;;15.20;100.00
36828;BME280;22766;48.042;11.192;2023-05-03T09:54:32;95702.97;;;15.50;100.00
36828;BME280;22766;48.042;11.192;2023-05-03T09:57:03;95713.25;;;15.52;100.00
36828;BME280;22766;48.042;11.192;2023-05-03T09:59:35;95709.31;;;15.64;100.00
36828;BME280;22766;48.042;11.192;2023-05-03T10:02:05;95709.50;;;15.54;100.00
36828;BME280;22766;48.042;11.192;2023-05-03T10:04:46;95700.53;;;15.41;100.00
36828;BME280;22766;48.042;11.192;2023-05-03T10:07:17;95701.44;;;15.88;100.00
36828;BME280;22766;48.042;11.192;2023-05-03T10:09:46;95705.69;;;15.81;100.00
36828;BME280;22766;48.042;11.192;2023-05-03T10:12:14;95702.31;;;15.72;100.00
36828;BME280;22766;48.042;11.192;2023-05-03T10:14:44;95700.56;;;16.04;100.00
36828;BME280;22766;48.042;11.192;2023-05-03T10:17:15;95700.56;;;16.04;100.00
36828;BME280;22766;48.042;11.192;2023-05-03T10:19:50;95699.09;;;16.78;100.00
36828;BME280;22766;48.042;11.192;2023-05-03T10:22:18;95694.00;;;17.30;100.00
36828;BME280;22766;48.042;11.192;2023-05-03T10:27:41;95696.75;;;17.51;100.00
36828;BME280;22766;48.042;11.192;2023-05-03T10:32:54;95701.94;;;17.14;100.00
36828;BME280;22766;48.042;11.192;2023-05-03T10:35:25;95686.88;;;17.24;100.00
36828;BME280;22766;48.042;11.192;2023-05-03T10:37:52;95692.41;;;16.53;100.00
36828;BME280;22766;48.042;11.192;2023-05-03T10:40:19;95697.81;;;17.20;100.00
36828;BME280;22766;48.042;11.192;2023-05-03T10:42:51;95696.31;;;17.03;100.00
36828;BME280;22766;48.042;11.192;2023-05-03T10:45:25;95687.22;;;16.99;100.00
36828;BME280;22766;48.042;11.192;2023-05-03T10:50:38;95693.38;;;17.95;100.00
36828;BME280;22766;48.042;11.192;2023-05-03T10:53:05;95689.44;;;18.63;100.00
36828;BME280;22766;48.042;11.192;2023-05-03T10:55:33;95693.44;;;18.59;100.00
36828;BME280;22766;48.042;11.192;2023-05-03T10:58:01;95691.41;;;19.18;100.00
36828;BME280;22766;48.042;11.192;2023-05-03T11:05:46;95687.28;;;19.79;93.38
36828;BME280;22766;48.042;11.192;2023-05-03T11:08:15;95695.94;;;19.80;92.61
36828;BME280;22766;48.042;11.192;2023-05-03T11:10:47;95681.66;;;20.16;95.87
36828;BME280;22766;48.042;11.192;2023-05-03T11:13:14;95677.31;;;20.36;93.15
36828;BME280;22766;48.042;11.192;2023-05-03T11:15:41;95673.50;;;19.71;89.31
36828;BME280;22766;48.042;11.192;2023-05-03T11:18:09;95681.69;;;19.89;90.96
36828;BME280;22766;48.042;11.192;2023-05-03T11:20:39;95678.31;;;19.67;89.12
36828;BME280;22766;48.042;11.192;2023-05-03T11:23:06;95681.50;;;19.14;85.65
36828;BME280;22766;48.042;11.192;2023-05-03T11:25:33;95684.97;;;19.00;87.52
36828;BME280;22766;48.042;11.192;2023-05-03T11:28:00;95685.16;;;18.98;89.89
36828;BME280;22766;48.042;11.192;2023-05-03T11:30:28;95681.41;;;19.49;89.71
36828;BME280;22766;48.042;11.192;2023-05-03T11:32:55;95677.56;;;19.73;83.53
36828;BME280;22766;48.042;11.192;2023-05-03T11:35:23;95673.06;;;20.29;78.52
36828;BME280;22766;48.042;11.192;2023-05-03T11:37:52;95668.91;;;21.41;73.85
36828;BME280;22766;48.042;11.192;2023-05-03T11:40:19;95668.47;;;21.37;63.38
36828;BME280;22766;48.042;11.192;2023-05-03T11:43:12;95671.09;;;21.70;56.46
36828;BME280;22766;48.042;11.192;2023-05-03T11:45:41;95674.94;;;22.57;62.63
36828;BME280;22766;48.042;11.192;2023-05-03T11:48:10;95674.84;;;22.26;61.79
36828;BME280;22766;48.042;11.192;2023-05-03T11:53:24;95667.50;;;22.41;66.88
36828;BME280;22766;48.042;11.192;2023-05-03T11:55:52;95676.63;;;22.39;64.26
36828;BME280;22766;48.042;11.192;2023-05-03T11:58:24;95676.63;;;22.39;64.50
36828;BME280;22766;48.042;11.192;2023-05-03T12:00:54;95671.34;;;23.20;60.15
36828;BME280;22766;48.042;11.192;2023-05-03T12:03:23;95674.94;;;22.64;54.58
36828;BME280;22766;48.042;11.192;2023-05-03T12:05:57;95663.13;;;22.15;65.82
36828;BME280;22766;48.042;11.192;2023-05-03T12:08:29;95662.84;;;22.43;60.47
36828;BME280;22766;48.042;11.192;2023-05-03T12:11:00;95662.53;;;22.71;57.09
36828;BME280;22766;48.042;11.192;2023-05-03T12:13:32;95661.66;;;23.14;52.05
36828;BME280;22766;48.042;11.192;2023-05-03T12:16:05;95657.63;;;23.68;50.33
36828;BME280;22766;48.042;11.192;2023-05-03T12:21:18;95659.34;;;22.56;49.09
36828;BME280;22766;48.042;11.192;2023-05-03T12:23:48;95653.88;;;23.26;50.00
36828;BME280;22766;48.042;11.192;2023-05-03T12:26:19;95653.16;;;24.29;51.65
36828;BME280;22766;48.042;11.192;2023-05-03T12:28:47;95650.41;;;25.02;44.70
36828;BME280;22766;48.042;11.192;2023-05-03T12:31:14;95644.13;;;24.00;43.85
36828;BME280;22766;48.042;11.192;2023-05-03T12:33:43;95649.53;;;24.60;43.82
36828;BME280;22766;48.042;11.192;2023-05-03T12:36:30;95647.53;;;23.40;44.55
36828;BME280;22766;48.042;11.192;2023-05-03T12:39:03;95631.53;;;24.21;44.66
36828;BME280;22766;48.042;11.192;2023-05-03T12:41:34;95630.00;;;24.79;41.83
36828;BME280;22766;48.042;11.192;2023-05-03T12:44:21;95633.56;;;25.14;41.43
36828;BME280;22766;48.042;11.192;2023-05-03T12:46:49;95637.91;;;25.09;42.39
36828;BME280;22766;48.042;11.192;2023-05-03T12:49:18;95632.19;;;25.23;40.01
36828;BME280;22766;48.042;11.192;2023-05-03T12:51:49;95625.41;;;25.27;41.80
36828;BME280;22766;48.042;11.192;2023-05-03T12:54:36;95625.09;;;24.64;38.22
36828;BME280;22766;48.042;11.192;2023-05-03T12:57:08;95628.13;;;24.50;42.37
36828;BME280;22766;48.042;11.192;2023-05-03T12:59:41;95620.91;;;25.16;39.49
36828;BME280;22766;48.042;11.192;2023-05-03T13:02:11;95614.09;;;24.97;40.34
36828;BME280;22766;48.042;11.192;2023-05-03T13:04:41;95610.91;;;25.07;41.33
36828;BME280;22766;48.042;11.192;2023-05-03T13:07:25;95613.66;;;25.64;40.16
36828;BME280;22766;48.042;11.192;2023-05-03T13:09:57;95613.31;;;25.08;40.68
36828;BME280;22766;48.042;11.192;2023-05-03T13:12:27;95609.84;;;25.08;38.23
36828;BME280;22766;48.042;11.192;2023-05-03T13:14:54;95611.13;;;24.46;40.78
36828;BME280;22766;48.042;11.192;2023-05-03T13:17:21;95604.53;;;24.66;38.25
36828;BME280;22766;48.042;11.192;2023-05-03T13:19:50;95600.88;;;25.61;39.14
36828;BME280;22766;48.042;11.192;2023-05-03T13:22:17;95601.09;;;26.46;37.55
36828;BME280;22766;48.042;11.192;2023-05-03T13:24:46;95597.13;;;27.49;35.36